createdAt,value
2022-09-09T00:01:55.261Z,38.08
2022-09-09T00:12:23.092Z,45.33
2022-09-09T00:15:29.479Z,35.72
2022-09-09T00:20:47.191Z,28.20
2022-09-09T00:23:25.712Z,34.92
2022-09-09T00:26:06.351Z,10.57
2022-09-09T00:28:40.721Z,9.73
2022-09-09T00:31:15.537Z,6.78
2022-09-09T00:33:44.277Z,5.90
2022-09-09T00:36:16.766Z,6.50
2022-09-09T00:42:02.009Z,9.90
2022-09-09T00:44:36.403Z,7.82
2022-09-09T00:52:34.310Z,8.43
2022-09-09T00:55:10.791Z,8.70
2022-09-09T00:57:37.646Z,9.32
2022-09-09T01:08:36.347Z,10.38
2022-09-09T01:13:34.754Z,10.15
2022-09-09T01:16:04.737Z,10.93
2022-09-09T01:18:37.411Z,63.83
2022-09-09T01:21:35.773Z,9.57
2022-09-09T01:24:23.091Z,8.82
2022-09-09T01:26:52.845Z,10.05
2022-09-09T01:29:22.293Z,15.63
2022-09-09T01:32:00.212Z,19.73
2022-09-09T01:34:32.411Z,9.30
2022-09-09T01:39:37.038Z,11.70
2022-09-09T01:42:06.033Z,30.88
2022-09-09T01:44:35.334Z,28.90
2022-09-09T01:47:01.864Z,9.93
2022-09-09T01:49:28.712Z,12.18
2022-09-09T01:51:56.739Z,10.35
2022-09-09T01:54:27.401Z,9.13
2022-09-09T01:57:16.952Z,18.25
2022-09-09T02:03:13.152Z,32.38
2022-09-09T02:05:44.962Z,31.13
2022-09-09T02:08:19.739Z,17.48
2022-09-09T02:10:56.036Z,11.23
2022-09-09T02:13:23.400Z,8.60
2022-09-09T02:18:33.883Z,7.20
2022-09-09T02:21:00.850Z,5.80
2022-09-09T02:23:29.360Z,7.20
2022-09-09T02:25:58.937Z,8.10
2022-09-09T02:28:29.697Z,13.25
2022-09-09T02:30:56.916Z,11.05
2022-09-09T02:33:31.809Z,8.60
2022-09-09T02:36:04.479Z,10.50
2022-09-09T02:38:36.479Z,10.90
2022-09-09T02:41:03.394Z,9.82
2022-09-09T02:43:38.287Z,7.72
2022-09-09T02:46:34.022Z,8.38
2022-09-09T02:51:56.211Z,16.25
2022-09-09T02:54:32.295Z,24.42
2022-09-09T02:59:45.204Z,16.73
2022-09-09T03:02:12.464Z,12.40
2022-09-09T03:04:40.568Z,26.08
2022-09-09T03:07:07.114Z,31.10
2022-09-09T03:09:34.656Z,22.55
2022-09-09T03:12:01.428Z,46.08
2022-09-09T03:14:28.050Z,24.25
2022-09-09T03:16:55.006Z,18.38
2022-09-09T03:19:22.284Z,12.30
2022-09-09T03:21:49.090Z,18.90
2022-09-09T03:24:15.620Z,14.80
2022-09-09T03:26:45.725Z,18.98
2022-09-09T03:29:13.615Z,20.73
2022-09-09T03:31:40.855Z,17.42
2022-09-09T03:34:07.854Z,13.43
2022-09-09T03:36:34.608Z,16.25
2022-09-09T03:39:01.951Z,18.45
2022-09-09T03:41:28.857Z,18.58
2022-09-09T03:43:55.496Z,22.30
2022-09-09T03:46:24.123Z,22.20
2022-09-09T03:48:51.133Z,18.25
2022-09-09T03:51:18.001Z,20.73
2022-09-09T03:53:44.537Z,26.90
2022-09-09T03:56:11.125Z,17.40
2022-09-09T03:58:38.516Z,24.02
2022-09-09T04:01:09.760Z,20.17
2022-09-09T04:03:36.465Z,17.42
2022-09-09T04:06:04.569Z,18.65
2022-09-09T04:08:32.767Z,23.08
2022-09-09T04:10:59.676Z,21.10
2022-09-09T04:13:27.380Z,23.65
2022-09-09T04:15:55.938Z,20.77
2022-09-09T04:18:23.387Z,19.60
2022-09-09T04:20:51.451Z,21.65
2022-09-09T04:23:20.080Z,21.15
2022-09-09T04:25:52.358Z,20.00
2022-09-09T04:28:21.077Z,20.40
2022-09-09T04:30:48.008Z,25.05
2022-09-09T04:33:15.481Z,25.13
2022-09-09T04:35:51.240Z,21.73
2022-09-09T04:38:18.561Z,21.95
2022-09-09T04:40:47.829Z,17.38
2022-09-09T04:43:15.783Z,16.80
2022-09-09T04:45:43.888Z,20.13
2022-09-09T04:48:10.756Z,22.42
2022-09-09T04:50:37.281Z,21.90
2022-09-09T04:53:05.977Z,25.00
2022-09-09T04:55:34.170Z,21.25
2022-09-09T04:58:08.596Z,19.92
2022-09-09T05:00:36.895Z,25.00
2022-09-09T05:03:05.350Z,22.88
2022-09-09T05:05:32.293Z,22.38
2022-09-09T05:08:04.160Z,28.52
2022-09-09T05:10:30.713Z,21.58
2022-09-09T05:12:57.625Z,29.15
2022-09-09T05:15:24.283Z,27.13
2022-09-09T05:17:52.381Z,23.65
2022-09-09T05:20:19.489Z,24.20
2022-09-09T05:22:46.007Z,28.27
2022-09-09T05:25:12.555Z,31.92
2022-09-09T05:27:39.052Z,33.13
2022-09-09T05:30:06.067Z,32.30
2022-09-09T05:32:35.064Z,36.90
2022-09-09T05:35:02.560Z,38.90
2022-09-09T05:37:30.627Z,35.42
2022-09-09T05:39:57.609Z,33.75
2022-09-09T05:42:24.655Z,35.15
2022-09-09T05:44:52.003Z,39.35
2022-09-09T05:47:18.500Z,33.42
2022-09-09T05:49:45.013Z,36.72
2022-09-09T05:52:11.531Z,37.97
2022-09-09T05:54:38.875Z,31.98
2022-09-09T05:57:05.819Z,37.47
2022-09-09T05:59:33.256Z,37.28
2022-09-09T06:02:00.244Z,41.17
2022-09-09T06:04:27.249Z,39.40
2022-09-09T06:06:53.834Z,39.65
2022-09-09T06:09:20.370Z,36.92
2022-09-09T06:11:46.900Z,38.88
2022-09-09T06:14:13.514Z,42.78
2022-09-09T06:16:40.216Z,39.47
2022-09-09T06:19:07.497Z,40.75
2022-09-09T06:21:37.917Z,39.70
2022-09-09T06:24:05.849Z,45.38
2022-09-09T06:26:34.928Z,39.13
2022-09-09T06:29:04.999Z,42.28
2022-09-09T06:31:35.282Z,48.55
2022-09-09T06:34:03.227Z,45.80
2022-09-09T06:36:32.219Z,45.75
2022-09-09T06:38:59.301Z,38.55
2022-09-09T06:41:28.620Z,46.72
2022-09-09T06:43:56.585Z,42.35
2022-09-09T06:46:25.835Z,45.85
2022-09-09T06:48:52.865Z,53.15
2022-09-09T06:51:22.639Z,49.70
2022-09-09T06:58:57.777Z,47.42
2022-09-09T07:01:27.111Z,48.33
2022-09-09T07:03:55.597Z,42.42
2022-09-09T07:06:25.945Z,42.40
2022-09-09T07:08:56.788Z,45.13
2022-09-09T07:11:27.133Z,48.38
2022-09-09T07:13:53.971Z,41.45
2022-09-09T07:16:23.820Z,40.42
2022-09-09T07:21:18.674Z,40.13
2022-09-09T07:23:45.326Z,43.38
2022-09-09T07:26:14.927Z,48.72
2022-09-09T07:28:42.296Z,48.38
2022-09-09T07:31:17.508Z,52.80
2022-09-09T07:33:45.997Z,46.38
2022-09-09T07:36:18.743Z,47.22
2022-09-09T07:38:48.413Z,39.90
2022-09-09T07:41:19.017Z,33.10
2022-09-09T07:43:47.325Z,31.55
2022-09-09T07:46:15.973Z,26.80
2022-09-09T07:48:53.180Z,26.38
2022-09-09T07:51:24.701Z,22.08
2022-09-09T07:53:55.159Z,27.65
2022-09-09T07:56:24.263Z,22.15
2022-09-09T07:58:53.174Z,28.45
2022-09-09T08:04:03.951Z,26.85
2022-09-09T08:06:34.396Z,28.63
2022-09-09T08:09:01.292Z,32.92
2022-09-09T08:11:31.172Z,25.35
2022-09-09T08:14:02.400Z,24.65
2022-09-09T08:16:32.774Z,21.63
2022-09-09T08:19:00.568Z,23.48
2022-09-09T08:21:30.198Z,19.70
2022-09-09T08:23:58.384Z,20.30
2022-09-09T08:29:02.260Z,20.25
2022-09-09T08:31:31.887Z,19.02
2022-09-09T08:34:00.475Z,17.98
2022-09-09T08:36:30.192Z,18.40
2022-09-09T08:58:02.500Z,23.88
2022-09-09T09:00:40.607Z,20.13
2022-09-09T09:03:20.978Z,17.63
2022-09-09T09:08:42.733Z,25.88
2022-09-09T09:11:09.550Z,21.45
2022-09-09T09:13:46.388Z,20.73
2022-09-09T09:16:23.326Z,25.33
2022-09-09T09:18:50.444Z,25.75
2022-09-09T09:21:30.007Z,20.50
2022-09-09T09:23:59.803Z,22.10
2022-09-09T09:26:33.790Z,18.00
2022-09-09T09:29:02.444Z,16.25
2022-09-09T09:31:29.302Z,21.20
2022-09-09T09:33:57.327Z,16.40
2022-09-09T09:36:34.548Z,16.92
2022-09-09T09:41:52.120Z,14.30
2022-09-09T09:44:28.568Z,14.82
2022-09-09T09:47:08.692Z,17.38
2022-09-09T09:49:35.815Z,14.77
2022-09-09T09:52:04.113Z,17.90
2022-09-09T09:54:37.018Z,16.42
2022-09-09T09:57:13.204Z,18.30
2022-09-09T09:59:41.096Z,18.45
2022-09-09T10:05:03.708Z,22.48
2022-09-09T10:07:30.332Z,22.15
2022-09-09T10:09:59.147Z,21.45
2022-09-09T10:23:18.649Z,19.75
2022-09-09T10:40:27.349Z,14.05
2022-09-09T10:43:02.167Z,16.48
2022-09-09T10:45:40.258Z,15.25
2022-09-09T10:56:05.996Z,12.07
2022-09-09T10:58:42.398Z,10.73
2022-09-09T11:01:17.216Z,8.45
2022-09-09T11:03:46.166Z,9.98
2022-09-09T11:06:20.675Z,7.72
2022-09-09T11:08:52.669Z,11.55
2022-09-09T11:11:31.039Z,10.52
2022-09-09T11:16:57.192Z,13.15
2022-09-09T11:19:32.996Z,12.75
2022-09-09T11:22:01.778Z,13.45
2022-09-09T11:24:35.390Z,15.65
2022-09-09T11:27:13.149Z,12.02
2022-09-09T11:29:53.541Z,13.10
2022-09-09T11:38:07.404Z,14.32
2022-09-09T11:40:34.343Z,13.05
2022-09-09T11:43:06.940Z,15.52
2022-09-09T11:45:36.733Z,13.05
2022-09-09T11:48:05.067Z,11.75
2022-09-09T11:50:38.409Z,12.23
2022-09-09T11:55:42.693Z,10.15
2022-09-09T12:00:51.057Z,10.00
2022-09-09T12:06:34.385Z,10.30
2022-09-09T12:09:18.340Z,12.32
2022-09-09T12:11:44.910Z,9.93
2022-09-09T12:14:51.233Z,10.13
2022-09-09T12:20:15.687Z,12.88
2022-09-09T12:28:06.009Z,11.63
2022-09-09T12:33:20.554Z,11.30
2022-09-09T12:35:56.663Z,10.38
2022-09-09T12:38:32.989Z,11.27
2022-09-09T12:41:00.012Z,13.45
2022-09-09T12:43:31.020Z,7.75
2022-09-09T12:46:03.497Z,8.02
2022-09-09T12:48:38.212Z,7.22
2022-09-09T12:51:08.386Z,7.57
2022-09-09T12:53:37.340Z,7.03
2022-09-09T12:58:48.303Z,8.23
2022-09-09T13:01:34.260Z,9.07
2022-09-09T13:04:01.289Z,7.55
2022-09-09T13:06:30.236Z,9.40
2022-09-09T13:08:59.874Z,11.43
2022-09-09T13:14:07.596Z,10.85
2022-09-09T13:16:40.457Z,8.63
2022-09-09T13:21:45.082Z,9.98
2022-09-09T13:24:33.738Z,8.40
2022-09-09T13:27:03.064Z,9.82
2022-09-09T13:29:31.236Z,4.15
2022-09-09T13:32:08.869Z,1.50
2022-09-09T13:34:36.692Z,1.50
2022-09-09T13:37:07.102Z,1.10
2022-09-09T13:39:36.858Z,3.60
2022-09-09T13:42:04.680Z,2.22
2022-09-09T13:44:35.417Z,2.17
2022-09-09T13:47:09.993Z,2.50
2022-09-09T13:49:37.293Z,2.13
2022-09-09T13:52:23.525Z,1.52
2022-09-09T13:54:52.295Z,2.83
2022-09-09T13:57:22.752Z,1.95
2022-09-09T14:00:07.929Z,3.85
2022-09-09T14:02:35.116Z,3.47
2022-09-09T14:05:01.976Z,3.20
2022-09-09T14:07:28.613Z,4.05
2022-09-09T14:09:55.134Z,4.03
2022-09-09T14:12:21.650Z,4.88
2022-09-09T14:14:48.305Z,7.30
2022-09-09T14:17:15.832Z,5.78
2022-09-09T14:19:43.411Z,4.25
2022-09-09T14:22:09.924Z,5.97
2022-09-09T14:24:36.470Z,7.75
2022-09-09T14:27:03.276Z,6.85
2022-09-09T14:29:29.848Z,6.22
2022-09-09T14:31:56.362Z,7.03
2022-09-09T14:34:22.866Z,6.53
2022-09-09T14:36:49.405Z,5.65
2022-09-09T14:39:15.933Z,5.32
2022-09-09T14:41:42.461Z,6.78
2022-09-09T14:44:09.612Z,7.68
2022-09-09T14:46:36.517Z,6.57
2022-09-09T14:49:03.741Z,7.95
2022-09-09T14:51:30.700Z,6.13
2022-09-09T14:54:00.370Z,9.20
2022-09-09T14:56:30.818Z,7.30
2022-09-09T14:58:59.893Z,7.25
2022-09-09T15:01:28.560Z,6.13
2022-09-09T15:03:59.320Z,9.15
2022-09-09T15:06:27.967Z,10.30
2022-09-09T15:08:55.409Z,6.38
2022-09-09T15:11:23.995Z,5.97
2022-09-09T15:13:53.933Z,8.18
2022-09-09T15:16:22.975Z,6.55
2022-09-09T15:18:54.102Z,9.18
2022-09-09T15:21:23.505Z,8.23
2022-09-09T15:26:18.013Z,7.40
2022-09-09T15:28:46.837Z,8.48
2022-09-09T15:31:16.228Z,7.57
2022-09-09T15:33:47.615Z,7.05
2022-09-09T15:36:24.777Z,8.52
2022-09-09T15:38:52.948Z,6.40
2022-09-09T15:41:22.765Z,8.82
2022-09-09T15:43:52.165Z,7.03
2022-09-09T15:48:59.255Z,2.25
2022-09-09T15:51:44.207Z,0.98
2022-09-09T15:54:14.553Z,0.82
2022-09-09T15:56:42.073Z,1.13
2022-09-09T15:59:08.790Z,2.13
2022-09-09T16:01:36.565Z,3.13
2022-09-09T16:04:03.628Z,1.52
2022-09-09T16:06:30.789Z,0.90
2022-09-09T16:08:59.553Z,1.25
2022-09-09T16:11:29.795Z,1.40
2022-09-09T16:13:57.021Z,0.82
2022-09-09T16:16:25.381Z,1.20
2022-09-09T16:18:57.560Z,1.75
2022-09-09T16:21:26.958Z,1.40
2022-09-09T16:23:55.252Z,1.50
2022-09-09T16:26:23.027Z,1.70
2022-09-09T16:28:50.462Z,1.13
2022-09-09T16:31:20.084Z,1.80
2022-09-09T16:33:48.657Z,2.72
2022-09-09T16:36:17.777Z,1.88
2022-09-09T16:38:44.348Z,3.60
2022-09-09T16:41:12.395Z,2.05
2022-09-09T16:43:41.076Z,4.88
2022-09-09T16:46:17.620Z,2.88
2022-09-09T16:48:45.649Z,3.10
2022-09-09T16:51:24.305Z,1.60
2022-09-09T16:53:51.927Z,2.05
2022-09-09T16:56:22.461Z,0.70
2022-09-09T16:58:51.713Z,1.65
2022-09-09T17:01:18.388Z,0.98
2022-09-09T17:03:45.192Z,1.50
2022-09-09T17:06:13.594Z,1.80
2022-09-09T17:08:42.450Z,1.67
2022-09-09T17:11:15.085Z,1.15
2022-09-09T17:13:43.423Z,2.08
2022-09-09T17:16:10.953Z,1.60
2022-09-09T17:18:37.981Z,1.88
2022-09-09T17:21:07.553Z,1.73
2022-09-09T17:23:35.775Z,2.47
2022-09-09T17:26:02.524Z,2.45
2022-09-09T17:28:32.157Z,5.80
2022-09-09T17:31:02.300Z,1.38
2022-09-09T17:33:31.884Z,2.05
2022-09-09T17:36:00.052Z,3.63
2022-09-09T17:38:29.337Z,2.72
2022-09-09T17:41:07.069Z,3.20
2022-09-09T17:43:34.198Z,3.97
2022-09-09T17:48:55.747Z,4.30
2022-09-09T17:51:26.062Z,5.93
2022-09-09T17:53:55.837Z,4.53
2022-09-09T17:56:24.599Z,3.72
2022-09-09T17:58:51.816Z,3.78
2022-09-09T18:01:21.966Z,5.18
2022-09-09T18:03:50.417Z,3.55
2022-09-09T18:06:19.319Z,5.88
2022-09-09T18:08:53.589Z,4.13
2022-09-09T18:11:22.173Z,2.75
2022-09-09T18:13:51.397Z,5.05
2022-09-09T18:16:19.519Z,2.63
2022-09-09T18:18:46.886Z,4.55
2022-09-09T18:21:14.348Z,2.60
2022-09-09T18:23:44.966Z,3.83
2022-09-09T18:26:17.582Z,3.10
2022-09-09T18:28:49.517Z,3.63
2022-09-09T18:31:18.028Z,3.85
2022-09-09T18:33:46.531Z,6.82
2022-09-09T18:36:18.234Z,4.55
2022-09-09T18:38:45.031Z,3.15
2022-09-09T18:43:55.092Z,6.43
2022-09-09T18:46:23.481Z,3.78
2022-09-09T18:48:50.837Z,5.05
2022-09-09T18:51:20.460Z,7.72
2022-09-09T18:56:23.245Z,4.97
2022-09-09T18:58:55.766Z,5.22
2022-09-09T19:01:23.199Z,4.70
2022-09-09T19:03:50.061Z,5.93
2022-09-09T19:06:20.247Z,4.32
2022-09-09T19:08:49.325Z,4.07
2022-09-09T19:11:22.418Z,4.60
2022-09-09T19:13:53.930Z,4.90
2022-09-09T19:16:22.623Z,6.63
2022-09-09T19:18:51.910Z,4.40
2022-09-09T19:21:23.156Z,5.13
2022-09-09T19:26:40.595Z,4.97
2022-09-09T19:29:11.009Z,4.93
2022-09-09T19:31:38.687Z,5.75
2022-09-09T19:34:05.269Z,7.50
2022-09-09T19:36:31.840Z,8.38
2022-09-09T19:39:00.185Z,8.93
2022-09-09T19:41:28.376Z,8.60
2022-09-09T19:43:59.452Z,8.65
2022-09-09T19:46:26.381Z,7.55
2022-09-09T19:48:52.947Z,8.88
2022-09-09T19:51:22.040Z,8.75
2022-09-09T19:53:53.123Z,10.57
2022-09-09T19:56:22.964Z,11.98
2022-09-09T19:58:50.075Z,8.23
2022-09-09T20:01:23.415Z,9.90
2022-09-09T20:03:52.293Z,10.43
2022-09-09T20:06:21.523Z,14.15
2022-09-09T20:08:48.635Z,9.90
2022-09-09T20:11:16.930Z,11.80
2022-09-09T20:13:44.274Z,11.55
2022-09-09T20:16:15.021Z,14.40
2022-09-09T20:18:45.713Z,12.65
2022-09-09T20:21:16.284Z,13.55
2022-09-09T20:23:44.258Z,14.00
2022-09-09T20:26:13.684Z,13.25
2022-09-09T20:28:42.272Z,14.00
2022-09-09T20:31:11.776Z,13.82
2022-09-09T20:33:38.807Z,12.73
2022-09-09T20:36:24.771Z,10.27
2022-09-09T20:38:53.503Z,11.98
2022-09-09T20:41:22.948Z,12.95
2022-09-09T20:43:52.101Z,9.98
2022-09-09T20:46:20.802Z,10.82
2022-09-09T20:48:48.993Z,6.50
2022-09-09T20:51:17.505Z,7.75
2022-09-09T20:53:44.071Z,6.97
2022-09-09T20:56:11.411Z,5.70
2022-09-09T20:58:38.460Z,10.45
2022-09-09T21:01:07.689Z,7.57
2022-09-09T21:03:37.348Z,6.00
2022-09-09T21:06:05.856Z,5.22
2022-09-09T21:08:34.068Z,6.10
2022-09-09T21:11:02.721Z,5.97
2022-09-09T21:13:30.995Z,6.88
2022-09-09T21:15:58.501Z,5.35
2022-09-09T21:18:27.372Z,6.47
2022-09-09T21:20:54.325Z,7.97
2022-09-09T21:23:21.287Z,7.40
2022-09-09T21:25:48.659Z,7.43
2022-09-09T21:28:16.491Z,8.35
2022-09-09T21:30:48.300Z,8.02
2022-09-09T21:33:15.277Z,8.23
2022-09-09T21:35:42.226Z,7.45
2022-09-09T21:38:13.171Z,5.65
2022-09-09T21:40:41.209Z,6.22
2022-09-09T21:43:12.268Z,6.18
2022-09-09T21:45:39.993Z,5.55
2022-09-09T21:48:09.636Z,5.72
2022-09-09T21:50:37.780Z,6.35
2022-09-09T21:53:04.398Z,6.07
2022-09-09T21:55:36.742Z,8.07
2022-09-09T21:58:05.249Z,5.43
2022-09-09T22:00:32.188Z,8.65
2022-09-09T22:02:59.687Z,7.13
2022-09-09T22:05:27.285Z,8.00
2022-09-09T22:07:54.358Z,7.60
2022-09-09T22:10:22.211Z,9.02
2022-09-09T22:12:49.696Z,5.10
2022-09-09T22:15:16.321Z,6.55
2022-09-09T22:17:42.954Z,6.60
2022-09-09T22:20:10.854Z,7.03
2022-09-09T22:22:37.343Z,3.63
2022-09-09T22:25:05.161Z,6.25
2022-09-09T22:27:31.821Z,6.07
2022-09-09T22:29:58.425Z,5.07
2022-09-09T22:32:25.195Z,5.72
2022-09-09T22:34:51.790Z,7.47
2022-09-09T22:37:19.383Z,5.70
2022-09-09T22:39:46.015Z,7.85
2022-09-09T22:42:12.569Z,8.38
2022-09-09T22:44:39.312Z,7.45
2022-09-09T22:47:05.849Z,7.60
2022-09-09T22:49:32.390Z,7.97
2022-09-09T22:51:58.902Z,7.60
2022-09-09T22:54:25.501Z,5.18
2022-09-09T22:56:52.074Z,6.60
2022-09-09T22:59:19.670Z,6.28
2022-09-09T23:01:47.025Z,7.38
2022-09-09T23:04:13.761Z,4.85
2022-09-09T23:06:43.175Z,5.70
2022-09-09T23:09:12.852Z,6.85
2022-09-09T23:11:39.928Z,6.78
2022-09-09T23:14:11.275Z,5.82
2022-09-09T23:16:40.808Z,4.97
2022-09-09T23:19:10.835Z,6.95
2022-09-09T23:21:39.518Z,5.40
2022-09-09T23:24:07.768Z,7.88
2022-09-09T23:26:35.025Z,6.75
2022-09-09T23:29:02.532Z,6.22
2022-09-09T23:31:33.157Z,8.02
2022-09-09T23:34:01.291Z,9.25
2022-09-09T23:36:29.725Z,6.15
2022-09-09T23:38:59.039Z,7.65
2022-09-09T23:41:26.189Z,6.63
2022-09-09T23:43:53.837Z,5.13
2022-09-09T23:46:24.323Z,10.10
2022-09-09T23:48:51.858Z,7.40
2022-09-09T23:51:23.882Z,7.20
2022-09-09T23:53:53.086Z,7.40
2022-09-09T23:56:21.856Z,10.02
2022-09-09T23:58:49.135Z,8.75
